Time;durP1;ratioP1;P1;durP2;ratioP2;P2;SDS_P1;SDS_P2;PMS_P1;PMS_P2;Temp;Humidity;BMP_temperature;BMP_pressure;BME280_temperature;BME280_humidity;BME280_pressure;Samples;Min_cycle;Max_cycle;Signal;HPM_P1;HPM_P2
2023/01/14 00:00:53;;;;;;;2.53;1.70;;;;;;;4.70;100.00;152569.38;4989898;28;20803;-77
2023/01/14 00:03:19;;;;;;;3.70;2.13;;;;;;;4.64;100.00;152555.19;4997979;28;20488;-77
2023/01/14 00:05:55;;;;;;;4.60;2.00;;;;;;;4.62;100.00;152548.75;5005954;28;20448;-77
2023/01/14 00:08:21;;;;;;;2.30;1.80;;;;;;;4.52;100.00;152524.28;4986248;28;20454;-77
2023/01/14 00:10:50;;;;;;;4.43;2.17;;;;;;;4.51;100.00;152521.69;4991548;28;20437;-77
2023/01/14 00:13:16;;;;;;;3.00;1.47;;;;;;;4.47;100.00;152511.41;4987418;28;20536;-77
2023/01/14 00:15:51;;;;;;;5.23;1.40;;;;;;;4.44;100.00;152503.69;4987154;28;20512;-77
2023/01/14 00:18:18;;;;;;;1.90;1.20;;;;;;;4.34;100.00;152477.94;4990268;28;20458;-77
2023/01/14 00:20:44;;;;;;;5.10;1.70;;;;;;;4.35;100.00;152479.19;5005289;28;20470;-77
2023/01/14 00:23:11;;;;;;;2.40;1.60;;;;;;;4.35;100.00;152480.47;4987386;28;20513;-77
2023/01/14 00:25:38;;;;;;;2.33;1.50;;;;;;;4.32;100.00;152474.03;4989594;28;20533;-77
2023/01/14 00:28:06;;;;;;;4.27;2.03;;;;;;;4.35;100.00;152480.47;5003706;28;20446;-77
2023/01/14 00:30:33;;;;;;;3.53;1.40;;;;;;;4.31;100.00;152470.19;5004227;28;20460;-77
2023/01/14 00:33:00;;;;;;;2.80;1.57;;;;;;;4.25;100.00;152456.03;4989391;28;20450;-77
2023/01/14 00:35:26;;;;;;;2.63;1.00;;;;;;;4.19;100.00;152439.25;4987526;28;20485;-77
2023/01/14 00:37:53;;;;;;;3.93;1.43;;;;;;;4.18;100.00;152437.97;5005397;28;20437;-77
2023/01/14 00:40:20;;;;;;;2.33;1.33;;;;;;;4.16;100.00;152432.81;5001423;28;20449;-75
2023/01/14 00:42:46;;;;;;;3.70;1.40;;;;;;;4.12;100.00;152421.25;4987044;28;20476;-77
2023/01/14 00:45:15;;;;;;;2.63;1.63;;;;;;;4.09;100.00;152413.50;4973619;28;20843;-77
2023/01/14 00:47:41;;;;;;;2.80;1.43;;;;;;;4.11;100.00;152418.66;4989317;28;20460;-77
2023/01/14 00:50:10;;;;;;;4.93;2.00;;;;;;;4.12;100.00;152421.25;4986375;28;20454;-75
2023/01/14 00:52:37;;;;;;;3.17;1.50;;;;;;;4.12;100.00;152421.25;4990760;28;20499;-77
2023/01/14 00:55:04;;;;;;;3.00;1.60;;;;;;;4.10;100.00;152417.34;4989387;28;20449;-77
2023/01/14 00:57:32;;;;;;;2.43;1.30;;;;;;;4.10;100.00;152416.09;4987511;28;20472;-77
2023/01/14 00:59:58;;;;;;;4.00;1.77;;;;;;;4.07;100.00;152409.66;4988498;28;20481;-77
2023/01/14 01:02:26;;;;;;;5.03;2.10;;;;;;;4.10;100.00;152417.34;4987682;28;20473;-77
2023/01/14 01:04:53;;;;;;;3.10;1.57;;;;;;;4.04;100.00;152400.63;4987681;28;20477;-77
2023/01/14 01:07:20;;;;;;;3.80;1.77;;;;;;;4.06;100.00;152405.78;5007771;28;20461;-77
2023/01/14 01:09:48;;;;;;;4.73;1.60;;;;;;;4.02;100.00;152395.50;4979134;28;20453;-77
2023/01/14 01:12:14;;;;;;;2.60;1.20;;;;;;;4.03;100.00;152398.03;5005266;28;20816;-77
2023/01/14 01:14:41;;;;;;;2.70;1.40;;;;;;;4.01;100.00;152394.19;4989248;28;20449;-77
2023/01/14 01:17:09;;;;;;;4.17;1.90;;;;;;;4.02;100.00;152396.78;4992526;28;20450;-77
2023/01/14 01:19:37;;;;;;;2.83;1.43;;;;;;;4.04;100.00;152400.63;5001354;28;20485;-77
2023/01/14 01:22:04;;;;;;;2.10;1.40;;;;;;;4.03;100.00;152399.34;4991688;28;20477;-77
2023/01/14 01:24:30;;;;;;;4.27;1.80;;;;;;;4.06;100.00;152405.78;4989542;28;20469;-78
2023/01/14 01:26:57;;;;;;;4.17;1.67;;;;;;;4.06;100.00;152405.78;4986569;28;20452;-77
2023/01/14 01:29:24;;;;;;;5.13;1.50;;;;;;;4.06;100.00;152405.78;4971980;28;20453;-77
2023/01/14 01:31:50;;;;;;;4.50;1.30;;;;;;;4.14;100.00;152427.69;5004888;28;20532;-77
2023/01/14 01:34:17;;;;;;;3.03;1.83;;;;;;;4.17;100.00;152434.13;4991673;28;20484;-77
2023/01/14 01:36:47;;;;;;;2.20;1.70;;;;;;;4.12;100.00;152421.25;4991517;28;20834;-77
2023/01/14 01:39:13;;;;;;;4.60;1.87;;;;;;;4.03;100.00;152398.03;4992023;28;21024;-77
2023/01/14 01:41:43;;;;;;;4.17;1.73;;;;;;;4.00;100.00;152390.31;4993854;28;20485;-77
2023/01/14 01:44:48;;;;;;;2.90;1.40;;;;;;;4.02;100.00;152395.50;5008355;28;20520;-77
2023/01/14 01:47:15;;;;;;;3.27;1.60;;;;;;;3.96;100.00;152381.31;4991060;28;20492;-77
2023/01/14 01:49:43;;;;;;;4.27;1.50;;;;;;;3.97;100.00;152383.88;4987376;28;20879;-78
2023/01/14 01:52:16;;;;;;;3.93;1.40;;;;;;;3.97;100.00;152382.63;4975782;28;20529;-77
2023/01/14 01:54:47;;;;;;;2.90;1.33;;;;;;;3.91;100.00;152367.16;5008468;28;20708;-77
2023/01/14 01:57:14;;;;;;;2.20;1.37;;;;;;;3.91;100.00;152368.47;4982784;28;20797;-77
2023/01/14 01:59:50;;;;;;;5.77;1.67;;;;;;;3.89;100.00;152362.00;4989449;28;20789;-77
2023/01/14 02:02:17;;;;;;;2.40;1.60;;;;;;;3.89;100.00;152362.00;4990503;28;20859;-77
2023/01/14 02:04:43;;;;;;;1.60;1.50;;;;;;;3.88;100.00;152360.72;4975361;28;20564;-77
2023/01/14 02:07:16;;;;;;;5.97;1.60;;;;;;;3.83;100.00;152346.56;5006180;28;20508;-77
2023/01/14 02:09:44;;;;;;;2.87;1.60;;;;;;;3.85;100.00;152351.69;4993016;28;20476;-77
2023/01/14 02:12:27;;;;;;;6.50;2.03;;;;;;;3.85;100.00;152351.69;4985633;28;20478;-77
2023/01/14 02:15:03;;;;;;;3.93;1.37;;;;;;;3.81;100.00;152342.72;4999663;28;20457;-77
2023/01/14 02:17:39;;;;;;;1.93;1.43;;;;;;;3.81;100.00;152341.41;5006055;28;20514;-77
2023/01/14 02:20:18;;;;;;;2.57;1.40;;;;;;;3.82;100.00;152345.25;4975620;28;20491;-77
2023/01/14 02:23:22;;;;;;;2.30;1.43;;;;;;;3.86;100.00;152354.28;4987769;28;20465;-77
2023/01/14 02:26:15;;;;;;;3.83;1.70;;;;;;;3.84;100.00;152349.16;4917012;29;20424;-77
2023/01/14 02:28:58;;;;;;;1.80;1.20;;;;;;;3.83;100.00;152346.56;4971709;28;20461;-77
2023/01/14 02:31:41;;;;;;;1.80;1.07;;;;;;;3.84;100.00;152349.16;4972450;28;20520;-77
2023/01/14 02:34:14;;;;;;;2.40;1.17;;;;;;;3.80;100.00;152340.13;4990631;28;20485;-77
2023/01/14 02:36:45;;;;;;;3.20;1.30;;;;;;;3.80;100.00;152338.81;4984895;28;20446;-77
2023/01/14 02:39:15;;;;;;;6.50;1.73;;;;;;;3.79;100.00;152337.53;4987867;28;20539;-77
2023/01/14 02:44:35;;;;;;;3.63;1.33;;;;;;;3.78;100.00;152333.69;4990375;28;20473;-77
2023/01/14 02:47:05;;;;;;;4.97;1.67;;;;;;;3.71;100.00;152316.91;4986244;28;20453;-77
2023/01/14 02:49:36;;;;;;;2.73;1.40;;;;;;;3.75;100.00;152325.94;4990791;28;20542;-77
2023/01/14 02:52:06;;;;;;;3.00;1.47;;;;;;;3.71;100.00;152316.91;5005894;28;20485;-77
2023/01/14 02:54:34;;;;;;;6.20;2.20;;;;;;;3.67;100.00;152306.66;5002349;28;20445;-77
2023/01/14 02:57:08;;;;;;;2.87;1.30;;;;;;;3.67;100.00;152307.94;5006298;28;20877;-77
2023/01/14 02:59:46;;;;;;;2.10;1.53;;;;;;;3.66;100.00;152305.34;4973495;28;20445;-77
2023/01/14 03:02:42;;;;;;;4.40;1.30;;;;;;;3.67;100.00;152306.66;4963675;28;20457;-77
2023/01/14 03:05:21;;;;;;;2.07;1.20;;;;;;;3.65;100.00;152302.75;4991966;28;20783;-77
2023/01/14 03:07:51;;;;;;;3.53;1.27;;;;;;;3.60;100.00;152289.88;4986074;28;20915;-77
2023/01/14 03:10:24;;;;;;;2.10;0.97;;;;;;;3.58;100.00;152283.47;4984621;28;20477;-77
2023/01/14 03:13:03;;;;;;;1.70;1.07;;;;;;;3.51;100.00;152266.75;4988043;28;20465;-77
2023/01/14 03:15:35;;;;;;;2.13;1.17;;;;;;;3.50;100.00;152264.16;4988686;28;20824;-77
2023/01/14 03:18:05;;;;;;;1.90;1.00;;;;;;;3.49;100.00;152260.31;4988716;28;21229;-77
2023/01/14 03:20:37;;;;;;;2.30;1.40;;;;;;;3.50;100.00;152264.16;4988719;28;20492;-77
2023/01/14 03:23:10;;;;;;;4.43;1.70;;;;;;;3.50;100.00;152262.84;4989426;28;20584;-77
2023/01/14 03:25:40;;;;;;;1.93;1.20;;;;;;;3.54;100.00;152273.19;4990749;28;20448;-77
2023/01/14 03:28:18;;;;;;;3.13;1.33;;;;;;;3.53;100.00;152271.88;4974111;28;20505;-77
2023/01/14 03:30:49;;;;;;;5.83;1.40;;;;;;;3.52;100.00;152269.28;4990853;28;20933;-77
2023/01/14 03:33:20;;;;;;;3.00;1.63;;;;;;;3.49;100.00;152261.59;4990321;28;20434;-77
2023/01/14 03:35:48;;;;;;;1.80;1.30;;;;;;;3.53;100.00;152270.59;4973492;28;20510;-77
2023/01/14 03:38:18;;;;;;;3.00;1.00;;;;;;;3.55;100.00;152275.72;4988474;28;20552;-77
2023/01/14 03:40:46;;;;;;;3.50;1.43;;;;;;;3.54;100.00;152274.47;4990722;28;20449;-77
2023/01/14 03:43:17;;;;;;;3.10;1.50;;;;;;;3.53;100.00;152271.88;4989906;28;20579;-77
2023/01/14 03:45:46;;;;;;;6.40;1.60;;;;;;;3.54;100.00;152274.47;5004061;28;20450;-77
2023/01/14 03:48:13;;;;;;;3.30;1.10;;;;;;;3.55;100.00;152277.03;4991825;28;20458;-77
2023/01/14 03:50:55;;;;;;;2.80;1.30;;;;;;;3.55;100.00;152277.03;4997726;28;20542;-77
2023/01/14 03:53:26;;;;;;;2.00;1.33;;;;;;;3.55;100.00;152277.03;4972323;28;20438;-77
2023/01/14 03:55:57;;;;;;;2.90;1.27;;;;;;;3.54;100.00;152274.47;4990357;28;20438;-77
2023/01/14 03:58:33;;;;;;;2.80;1.20;;;;;;;3.50;100.00;152264.16;5003667;28;20457;-77
2023/01/14 04:01:07;;;;;;;2.80;1.30;;;;;;;3.51;100.00;152266.75;4990691;28;20492;-77
2023/01/14 04:03:34;;;;;;;3.27;1.40;;;;;;;3.49;100.00;152260.31;4989041;28;20631;-77
2023/01/14 04:06:04;;;;;;;1.60;0.87;;;;;;;3.48;100.00;152259.00;4981236;28;20454;-77
2023/01/14 04:08:31;;;;;;;2.00;1.20;;;;;;;3.48;100.00;152259.00;4997365;28;20446;-77
2023/01/14 04:10:58;;;;;;;2.33;1.20;;;;;;;3.48;100.00;152257.72;4991838;28;20450;-77
2023/01/14 04:16:09;;;;;;;2.23;1.20;;;;;;;3.48;100.00;152259.00;5004428;28;20456;-77
2023/01/14 04:18:36;;;;;;;3.13;1.47;;;;;;;3.47;100.00;152256.44;5007081;28;20446;-77
2023/01/14 04:21:04;;;;;;;1.60;1.00;;;;;;;3.47;100.00;152256.44;4991031;28;20871;-77
2023/01/14 04:23:31;;;;;;;2.07;1.00;;;;;;;3.48;100.00;152259.00;5005235;28;20465;-77
2023/01/14 04:25:58;;;;;;;3.73;1.40;;;;;;;3.49;100.00;152260.31;4990638;28;20529;-77
2023/01/14 04:28:25;;;;;;;3.13;1.20;;;;;;;3.46;100.00;152252.59;4991402;28;20855;-77
2023/01/14 04:30:52;;;;;;;2.00;0.80;;;;;;;3.44;100.00;152248.69;4990470;28;20456;-77
2023/01/14 04:33:18;;;;;;;4.20;1.50;;;;;;;3.42;100.00;152242.25;4986766;28;20953;-77
2023/01/14 04:35:45;;;;;;;2.47;0.90;;;;;;;3.44;100.00;152247.44;5000593;28;20629;-77
2023/01/14 04:38:13;;;;;;;1.50;0.70;;;;;;;3.43;100.00;152246.16;5005871;28;20688;-77
2023/01/14 04:40:40;;;;;;;2.03;1.10;;;;;;;3.47;100.00;152255.13;4990052;28;20474;-77
2023/01/14 04:43:06;;;;;;;3.83;1.10;;;;;;;3.50;100.00;152262.84;4992626;28;20458;-77
2023/01/14 04:45:32;;;;;;;3.57;1.50;;;;;;;3.55;100.00;152277.03;4993086;28;20472;-77
2023/01/14 04:47:59;;;;;;;3.07;1.13;;;;;;;3.57;100.00;152282.16;4992795;28;20208;-77
2023/01/14 04:50:33;;;;;;;5.67;1.10;;;;;;;3.60;100.00;152289.88;4989527;28;20445;-77
2023/01/14 04:53:07;;;;;;;2.30;0.90;;;;;;;3.68;100.00;152309.19;4998292;28;20481;-77
2023/01/14 04:55:38;;;;;;;1.00;0.80;;;;;;;3.65;100.00;152302.75;4986765;28;20441;-77
2023/01/14 04:58:05;;;;;;;2.20;1.10;;;;;;;3.69;100.00;152311.78;4995070;28;20446;-77
2023/01/14 05:00:32;;;;;;;1.30;0.80;;;;;;;3.74;100.00;152323.34;4992812;28;20456;-77
2023/01/14 05:02:59;;;;;;;3.17;0.97;;;;;;;3.78;100.00;152333.69;4993632;28;20446;-77
2023/01/14 05:05:25;;;;;;;3.87;1.20;;;;;;;3.80;100.00;152338.81;4993175;28;20469;-77
2023/01/14 05:07:52;;;;;;;3.03;1.50;;;;;;;3.78;100.00;152334.97;4992148;28;20453;-77
2023/01/14 05:10:19;;;;;;;3.60;1.10;;;;;;;3.80;100.00;152338.81;4989851;28;20461;-77
2023/01/14 05:12:56;;;;;;;2.47;1.40;;;;;;;3.82;100.00;152343.97;4986919;28;20488;-77
2023/01/14 05:15:24;;;;;;;2.60;1.10;;;;;;;3.79;100.00;152336.22;4989810;28;20454;-77
2023/01/14 05:17:51;;;;;;;1.40;0.70;;;;;;;3.79;100.00;152336.22;5007290;28;20463;-77
2023/01/14 05:20:18;;;;;;;2.40;0.80;;;;;;;3.73;100.00;152322.13;4988782;28;20450;-77
2023/01/14 05:22:44;;;;;;;3.10;1.20;;;;;;;3.69;100.00;152313.09;4992783;28;20536;-77
2023/01/14 05:25:11;;;;;;;4.63;0.73;;;;;;;3.69;100.00;152311.78;4991220;28;20840;-76
2023/01/14 05:27:38;;;;;;;2.60;1.17;;;;;;;3.66;100.00;152305.34;4988796;28;20457;-76
2023/01/14 05:30:08;;;;;;;2.00;0.90;;;;;;;3.66;100.00;152305.34;4989684;28;20453;-76
2023/01/14 05:32:34;;;;;;;2.40;0.97;;;;;;;3.66;100.00;152305.34;4992019;28;20493;-76
2023/01/14 05:35:01;;;;;;;1.20;0.87;;;;;;;3.67;100.00;152307.94;5005369;28;20469;-76
2023/01/14 05:37:28;;;;;;;4.97;1.30;;;;;;;3.67;100.00;152306.66;4991516;28;20457;-76
2023/01/14 05:39:54;;;;;;;2.00;0.80;;;;;;;3.64;100.00;152298.91;4990603;28;20547;-76
2023/01/14 05:47:54;;;;;;;1.90;1.10;;;;;;;3.61;100.00;152291.19;4993690;28;20445;-76
2023/01/14 05:50:20;;;;;;;1.63;1.00;;;;;;;3.61;100.00;152292.47;4986481;28;20508;-76
2023/01/14 05:52:47;;;;;;;2.70;1.67;;;;;;;3.59;100.00;152286.03;4990572;28;20512;-76
2023/01/14 05:55:14;;;;;;;2.57;1.20;;;;;;;3.58;100.00;152284.75;4992623;28;20917;-76
2023/01/14 05:57:41;;;;;;;2.27;1.10;;;;;;;3.54;100.00;152274.47;4991349;28;20449;-76
2023/01/14 06:06:20;;;;;;;3.30;0.83;;;;;;;3.58;100.00;152283.47;4991865;28;20434;-76
2023/01/14 06:08:25;;;;;;;2.20;1.00;;;;;;;3.64;100.00;152298.91;4990156;28;21060;-76
2023/01/14 06:10:52;;;;;;;2.20;0.90;;;;;;;3.72;100.00;152319.50;4993057;28;20975;-76
2023/01/14 06:13:23;;;;;;;3.63;0.80;;;;;;;3.72;100.00;152318.22;4983220;28;20613;-76
2023/01/14 06:15:52;;;;;;;1.80;0.80;;;;;;;3.74;100.00;152323.34;4995630;28;20449;-76
2023/01/14 06:18:22;;;;;;;3.30;1.40;;;;;;;3.69;100.00;152313.09;4978044;28;20461;-76
2023/01/14 06:20:50;;;;;;;3.47;1.27;;;;;;;3.65;100.00;152302.75;4982314;28;20952;-76
2023/01/14 06:23:17;;;;;;;2.97;1.40;;;;;;;3.64;100.00;152298.91;4982224;28;20461;-76
2023/01/14 06:25:45;;;;;;;4.40;1.30;;;;;;;3.68;100.00;152310.50;4980817;28;20835;-76
2023/01/14 06:28:12;;;;;;;3.27;1.00;;;;;;;3.72;100.00;152318.22;4993966;28;20457;-76
2023/01/14 06:30:38;;;;;;;3.93;1.80;;;;;;;3.69;100.00;152313.09;4980675;28;20820;-76
2023/01/14 06:33:07;;;;;;;3.20;1.50;;;;;;;3.66;100.00;152305.34;4993235;28;20462;-76
2023/01/14 06:35:33;;;;;;;2.80;1.50;;;;;;;3.69;100.00;152311.78;4985969;28;20483;-76
2023/01/14 06:38:00;;;;;;;3.53;1.63;;;;;;;3.63;100.00;152297.63;4981160;28;20568;-76
2023/01/14 06:40:27;;;;;;;2.63;1.43;;;;;;;3.64;100.00;152298.91;4979874;28;20481;-76
2023/01/14 06:42:54;;;;;;;5.00;1.87;;;;;;;3.64;100.00;152298.91;4983310;28;20461;-76
2023/01/14 06:45:21;;;;;;;2.83;1.40;;;;;;;3.60;100.00;152289.88;4980882;28;20982;-76
2023/01/14 06:47:48;;;;;;;2.27;1.50;;;;;;;3.60;100.00;152289.88;4996572;28;20455;-76
2023/01/14 06:50:18;;;;;;;3.27;1.90;;;;;;;3.60;100.00;152289.88;4983552;28;20572;-76
2023/01/14 06:52:45;;;;;;;4.80;1.40;;;;;;;3.58;100.00;152284.75;4979091;28;20508;-76
2023/01/14 06:55:11;;;;;;;3.00;1.63;;;;;;;3.57;100.00;152280.91;4982163;28;20811;-76
2023/01/14 06:57:38;;;;;;;3.63;1.43;;;;;;;3.60;100.00;152289.88;4993962;28;20801;-76
2023/01/14 07:00:06;;;;;;;2.53;1.50;;;;;;;3.68;100.00;152310.50;4994101;28;20860;-76
2023/01/14 07:02:33;;;;;;;3.30;1.60;;;;;;;3.66;100.00;152305.34;4983942;28;20459;-76
2023/01/14 07:05:00;;;;;;;4.70;2.07;;;;;;;3.70;100.00;152314.38;4982149;28;20561;-76
2023/01/14 07:07:28;;;;;;;2.57;1.27;;;;;;;3.74;100.00;152324.66;5009876;28;20542;-76
2023/01/14 07:09:54;;;;;;;2.90;1.90;;;;;;;3.79;100.00;152336.22;4980994;28;20504;-76
2023/01/14 07:12:21;;;;;;;4.40;2.40;;;;;;;3.81;100.00;152341.41;4981537;28;20466;-76
2023/01/14 07:14:48;;;;;;;4.70;2.07;;;;;;;3.85;100.00;152353.00;4978979;28;20556;-76
2023/01/14 07:17:14;;;;;;;3.80;1.90;;;;;;;3.89;100.00;152362.00;4993440;28;20458;-76
2023/01/14 07:19:41;;;;;;;3.37;2.60;;;;;;;3.93;100.00;152373.59;4994613;28;20533;-76
2023/01/14 07:22:08;;;;;;;2.73;1.67;;;;;;;3.94;100.00;152374.88;4977605;28;20895;-76
2023/01/14 07:24:37;;;;;;;5.40;2.57;;;;;;;3.99;100.00;152387.75;4986078;28;20466;-76
2023/01/14 07:27:04;;;;;;;3.20;1.90;;;;;;;4.00;100.00;152390.31;4978134;28;20519;-76
2023/01/14 07:29:31;;;;;;;2.20;1.70;;;;;;;4.01;100.00;152394.19;4992476;28;20539;-76
2023/01/14 07:31:57;;;;;;;7.10;1.90;;;;;;;4.06;100.00;152405.78;4994058;28;20462;-76
2023/01/14 07:34:24;;;;;;;8.37;2.13;;;;;;;4.11;100.00;152418.66;4992158;28;20573;-76
2023/01/14 07:36:51;;;;;;;6.63;1.90;;;;;;;4.16;100.00;152431.53;4979786;28;21008;-76
2023/01/14 07:39:17;;;;;;;3.77;1.57;;;;;;;4.27;100.00;152459.88;4995215;28;20458;-76
2023/01/14 07:41:45;;;;;;;4.27;1.77;;;;;;;4.26;100.00;152457.31;4995622;28;20469;-76
2023/01/14 07:44:23;;;;;;;4.53;1.93;;;;;;;4.28;100.00;152462.47;4992915;28;20455;-76
2023/01/14 07:46:52;;;;;;;4.40;1.50;;;;;;;4.32;100.00;152472.75;4963596;28;20926;-76
2023/01/14 07:49:19;;;;;;;4.67;2.30;;;;;;;4.36;100.00;152483.06;4979168;28;20457;-76
2023/01/14 07:51:46;;;;;;;4.73;1.50;;;;;;;4.38;100.00;152488.22;4995896;28;20534;-84
2023/01/14 07:54:13;;;;;;;9.67;2.10;;;;;;;4.36;100.00;152481.78;4997426;28;20571;-84
2023/01/14 07:56:39;;;;;;;3.63;1.83;;;;;;;4.44;100.00;152502.38;4988370;28;20523;-85
2023/01/14 07:59:07;;;;;;;5.87;2.20;;;;;;;4.51;100.00;152521.69;4982057;28;20458;-84
2023/01/14 08:01:34;;;;;;;4.40;2.20;;;;;;;4.50;100.00;152519.09;4992636;28;20456;-84
2023/01/14 08:04:01;;;;;;;3.53;2.20;;;;;;;4.48;100.00;152512.66;4994568;28;20541;-85
2023/01/14 08:06:28;;;;;;;4.63;2.07;;;;;;;4.48;100.00;152513.97;4986113;28;20484;-84
2023/01/14 08:08:55;;;;;;;6.10;2.30;;;;;;;4.49;100.00;152516.56;4980242;28;21013;-85
2023/01/14 08:11:22;;;;;;;3.83;2.13;;;;;;;4.54;100.00;152529.44;4994299;28;20461;-85
2023/01/14 08:13:50;;;;;;;2.70;1.77;;;;;;;4.57;100.00;152535.88;4977054;28;20514;-85
2023/01/14 08:16:18;;;;;;;3.50;2.00;;;;;;;4.54;100.00;152529.44;4984809;28;20450;-85
2023/01/14 08:18:45;;;;;;;2.63;1.63;;;;;;;4.57;100.00;152537.19;4986053;28;20465;-85
2023/01/14 08:21:11;;;;;;;3.33;2.00;;;;;;;4.62;100.00;152550.06;4998586;28;20981;-85
2023/01/14 08:23:38;;;;;;;3.60;1.80;;;;;;;4.66;100.00;152560.34;4981471;28;20561;-85
2023/01/14 08:26:06;;;;;;;8.23;2.33;;;;;;;4.72;100.00;152574.50;4983357;28;20567;-85
2023/01/14 08:28:33;;;;;;;3.03;1.43;;;;;;;4.73;100.00;152578.41;4996807;28;20451;-84
2023/01/14 08:31:01;;;;;;;2.73;1.50;;;;;;;4.75;100.00;152583.56;4981293;28;20454;-85
2023/01/14 08:33:29;;;;;;;5.17;1.57;;;;;;;4.83;100.00;152604.16;4999451;28;20450;-85
2023/01/14 08:35:56;;;;;;;4.63;1.50;;;;;;;4.85;100.00;152608.03;4985424;28;20484;-85
2023/01/14 08:38:23;;;;;;;6.00;1.90;;;;;;;4.83;100.00;152602.88;4997884;28;20963;-85
2023/01/14 08:40:49;;;;;;;2.80;2.00;;;;;;;4.85;100.00;152609.31;4997736;28;20546;-85
2023/01/14 08:43:16;;;;;;;6.70;2.07;;;;;;;4.89;100.00;152619.66;4998092;28;20538;-84
2023/01/14 08:45:43;;;;;;;5.33;2.03;;;;;;;4.93;100.00;152628.63;5007942;28;20568;-85
2023/01/14 08:48:10;;;;;;;6.20;2.60;;;;;;;5.02;100.00;152650.56;4983683;28;20477;-85
2023/01/14 08:50:38;;;;;;;6.10;3.10;;;;;;;5.08;100.00;152667.34;4988416;28;20548;-85
2023/01/14 08:53:05;;;;;;;5.63;3.40;;;;;;;5.16;100.00;152686.66;4989023;28;20556;-85
2023/01/14 08:55:31;;;;;;;3.90;2.37;;;;;;;5.18;100.00;152693.09;4985519;28;20464;-85
2023/01/14 08:57:58;;;;;;;2.47;1.77;;;;;;;5.23;100.00;152706.00;4999887;28;20961;-85
2023/01/14 09:00:25;;;;;;;3.63;1.70;;;;;;;5.31;100.00;152725.31;4983945;28;20528;-84
2023/01/14 09:02:52;;;;;;;4.70;2.00;;;;;;;5.33;100.00;152730.47;4983820;28;20449;-85
2023/01/14 09:05:18;;;;;;;3.57;2.07;;;;;;;5.40;100.00;152748.56;4987680;28;21155;-85
2023/01/14 09:18:57;;;;;;;2.33;1.60;;;;;;;5.64;100.00;152810.41;4990712;28;20433;-85
2023/01/14 09:21:24;;;;;;;4.13;2.23;;;;;;;5.68;100.00;152820.75;5008214;28;20450;-85
2023/01/14 09:23:52;;;;;;;3.03;1.80;;;;;;;5.66;100.00;152814.28;4990768;28;20451;-84
2023/01/14 09:26:20;;;;;;;3.03;1.30;;;;;;;5.65;100.00;152813.00;4985523;28;20465;-85
2023/01/14 09:28:47;;;;;;;7.43;1.77;;;;;;;5.73;100.00;152833.63;4983096;28;20834;-85
2023/01/14 09:31:13;;;;;;;2.50;1.67;;;;;;;5.70;100.00;152825.88;4983526;28;20539;-85
2023/01/14 09:33:40;;;;;;;3.80;1.90;;;;;;;5.78;100.00;152845.22;4998752;28;20839;-85
2023/01/14 09:36:08;;;;;;;4.20;1.97;;;;;;;5.80;100.00;152851.66;5000728;28;20937;-85
2023/01/14 09:38:34;;;;;;;3.43;1.73;;;;;;;5.80;100.00;152851.66;4995340;28;20477;-84
2023/01/14 09:41:03;;;;;;;3.57;1.80;;;;;;;5.88;100.00;152872.34;4999366;28;20512;-85
2023/01/14 09:43:31;;;;;;;6.30;2.23;;;;;;;5.88;100.00;152872.34;4982974;28;20454;-84
2023/01/14 09:46:00;;;;;;;5.40;1.97;;;;;;;5.87;100.00;152868.50;4997879;28;20486;-85
2023/01/14 09:48:28;;;;;;;2.77;1.80;;;;;;;5.93;100.00;152885.25;4983003;28;20803;-84
2023/01/14 09:51:03;;;;;;;4.17;1.50;;;;;;;5.94;100.00;152887.84;4995849;28;20513;-85
2023/01/14 09:53:44;;;;;;;4.00;1.40;;;;;;;5.96;100.00;152893.00;4998590;28;20540;-85
2023/01/14 09:56:17;;;;;;;2.80;1.70;;;;;;;6.03;100.00;152911.09;4982385;28;20487;-85
2023/01/14 09:58:50;;;;;;;4.00;1.67;;;;;;;6.04;100.00;152912.34;4981423;28;20882;-84
2023/01/14 10:01:21;;;;;;;5.37;2.00;;;;;;;6.08;100.00;152923.97;4996522;28;20465;-85
2023/01/14 10:03:53;;;;;;;3.30;1.60;;;;;;;6.14;100.00;152939.44;4989473;28;20946;-85
2023/01/14 10:06:20;;;;;;;4.07;2.13;;;;;;;6.19;100.00;152949.78;4982326;28;20489;-85
2023/01/14 10:08:50;;;;;;;4.70;1.80;;;;;;;6.21;100.00;152954.94;4982521;28;20454;-85
2023/01/14 10:11:19;;;;;;;2.27;1.50;;;;;;;6.21;100.00;152956.22;4997876;28;20453;-84
2023/01/14 10:13:48;;;;;;;6.37;1.83;;;;;;;6.21;100.00;152954.94;4982544;28;20453;-85
2023/01/14 10:16:18;;;;;;;4.00;1.80;;;;;;;6.30;100.00;152978.16;4982386;28;20460;-85
2023/01/14 10:18:50;;;;;;;2.87;2.13;;;;;;;6.39;100.00;153002.66;4981982;28;20446;-84
2023/01/14 10:21:21;;;;;;;4.53;2.70;;;;;;;6.41;100.00;153006.53;4993702;28;20941;-85
2023/01/14 10:23:47;;;;;;;3.00;1.87;;;;;;;6.43;100.00;153011.72;4996505;28;20435;-85
2023/01/14 10:26:15;;;;;;;3.47;1.97;;;;;;;6.54;100.00;153040.13;4985507;28;20489;-85
2023/01/14 10:28:44;;;;;;;5.60;2.40;;;;;;;6.59;100.00;153054.28;4998611;28;20436;-85
2023/01/14 10:31:16;;;;;;;4.87;2.60;;;;;;;6.68;100.00;153077.50;4993428;28;20464;-85
2023/01/14 10:33:42;;;;;;;2.67;2.10;;;;;;;6.96;100.00;153148.53;4985141;28;20454;-85
2023/01/14 10:36:14;;;;;;;5.37;2.40;;;;;;;7.07;100.00;153175.66;4986097;28;20486;-85
2023/01/14 10:38:42;;;;;;;3.13;2.03;;;;;;;7.13;100.00;153192.41;4980566;28;20712;-85
2023/01/14 10:41:10;;;;;;;6.00;2.60;;;;;;;7.15;100.00;153196.25;4994779;28;21009;-85
2023/01/14 10:43:39;;;;;;;4.80;2.83;;;;;;;7.10;100.00;153184.66;4996287;28;20454;-84
2023/01/14 10:46:07;;;;;;;4.83;2.13;;;;;;;6.91;100.00;153134.34;4981828;28;20875;-84
2023/01/14 10:48:42;;;;;;;3.73;1.80;;;;;;;6.80;100.00;153107.22;4993155;28;20826;-85
2023/01/14 10:51:34;;;;;;;3.90;1.93;;;;;;;6.79;100.00;153104.63;4981170;28;20547;-85
2023/01/14 10:54:15;;;;;;;1.50;1.20;;;;;;;6.90;100.00;153131.72;4981854;28;20446;-84
2023/01/14 10:56:45;;;;;;;3.03;1.57;;;;;;;6.91;100.00;153134.34;4978922;28;20676;-85
2023/01/14 10:59:28;;;;;;;5.63;1.60;;;;;;;7.00;100.00;153158.84;4994720;28;20475;-85
2023/01/14 11:01:56;;;;;;;2.20;1.60;;;;;;;6.98;100.00;153152.38;4981954;28;20465;-85
2023/01/14 11:04:27;;;;;;;3.93;1.80;;;;;;;7.02;100.00;153164.00;4979413;28;20777;-85
2023/01/14 11:06:54;;;;;;;2.47;1.70;;;;;;;7.00;100.00;153158.84;4980595;28;20557;-84
2023/01/14 11:09:25;;;;;;;3.13;2.03;;;;;;;7.08;100.00;153179.50;4992116;28;20472;-84
2023/01/14 11:11:53;;;;;;;5.50;1.70;;;;;;;7.12;100.00;153188.56;4980957;28;20474;-84
2023/01/14 11:14:27;;;;;;;5.87;1.70;;;;;;;7.11;100.00;153185.94;4978782;28;20462;-85
2023/01/14 11:16:56;;;;;;;3.00;2.60;;;;;;;7.09;100.00;153182.09;4963953;28;20454;-85
2023/01/14 11:19:24;;;;;;;3.10;1.60;;;;;;;7.08;100.00;153178.19;4979978;28;20444;-85
2023/01/14 11:21:53;;;;;;;4.30;2.30;;;;;;;7.15;100.00;153196.25;4996402;28;20453;-85
2023/01/14 11:24:24;;;;;;;3.60;1.80;;;;;;;7.14;100.00;153195.00;4990105;28;21050;-85
2023/01/14 11:27:00;;;;;;;3.87;1.77;;;;;;;7.24;100.00;153220.81;4984010;28;20481;-85
2023/01/14 11:29:29;;;;;;;2.40;1.93;;;;;;;7.26;100.00;153224.66;4995783;28;20461;-84
2023/01/14 11:31:59;;;;;;;3.23;1.80;;;;;;;7.21;100.00;153213.06;4997676;28;20463;-85
2023/01/14 11:34:29;;;;;;;3.77;2.40;;;;;;;7.27;100.00;153228.56;4995436;28;20477;-85
2023/01/14 11:37:04;;;;;;;2.43;1.53;;;;;;;7.31;100.00;153238.88;4980844;28;20445;-85
2023/01/14 11:39:31;;;;;;;1.80;1.30;;;;;;;7.36;100.00;153251.78;4970669;28;20453;-85
2023/01/14 11:41:58;;;;;;;2.93;1.23;;;;;;;7.40;100.00;153259.53;4987158;28;20482;-84
2023/01/14 11:44:28;;;;;;;4.33;1.40;;;;;;;7.50;100.00;153286.66;4997015;28;20501;-85
2023/01/14 11:47:16;;;;;;;2.07;1.20;;;;;;;7.59;100.00;153308.63;4972679;28;20477;-84
2023/01/14 11:49:43;;;;;;;1.80;1.10;;;;;;;7.60;100.00;153312.50;4992981;28;20466;-85
2023/01/14 11:52:19;;;;;;;2.13;1.13;;;;;;;7.63;100.00;153318.94;4996310;28;20493;-84
2023/01/14 11:54:47;;;;;;;2.27;0.83;;;;;;;7.59;100.00;153308.63;4994479;28;20457;-84
2023/01/14 11:57:16;;;;;;;2.33;1.40;;;;;;;7.66;100.00;153328.00;4994794;28;20501;-84
2023/01/14 11:59:44;;;;;;;2.33;1.57;;;;;;;7.67;100.00;153330.59;4978423;28;20455;-84
2023/01/14 12:02:15;;;;;;;1.63;1.10;;;;;;;7.67;100.00;153329.31;4978943;28;20509;-85